上海/浦東 の空港の天気 - METARとTAF

上海浦東国際空港 ( ZSPD / PVG ) - 中国 上海市
飛行場実況気象(Metar)
観測時間05/27 07:30 CST (05/26 23:30 UTC)
風向・風速不定 1m/s
視程10km以上
天気現象
なし
気温21℃
湿度78%
気圧1012hPa
METARZSPD 262330Z VRB01MPS CAVOK 21/17 Q1012 NOSIG
過去の天気等 Google飛行場航空写真 Wunderground天気予報

過去48時間のMETAR

飛行場予報(TAF)
発表時間: 5/27 05:03 CST (5/26 21:03 UTC)
予報対象時間: 27日8時 CST ~ 28日8時 CST
風向・風速東北東 3m/s
視程5000m
天気現象もや
全天の4割程度の雲 雲底高度 610m
27日14時 CST ~ 27日15時 CST に徐々に
風向・風速南南東 4m/s
TAF ZSPD 262103Z 2700/2724 07003MPS 5000 BR SCT020 TX28/2706Z TN18/2720Z
BECMG 2706/2707 15004MPS